Time;durP1;ratioP1;P1;durP2;ratioP2;P2;SDS_P1;SDS_P2;PMS_P1;PMS_P2;Temp;Humidity;BMP_temperature;BMP_pressure;BME280_temperature;BME280_humidity;BME280_pressure;Samples;Min_cycle;Max_cycle;Signal;HPM_P1;HPM_P2
2022/01/11 00:00:36;;;;;;;1.40;1.30;;;1.00;1.40;;;2.27;100.00;96299.88;617433;226;31922;-79
2022/01/11 00:03:18;;;;;;;2.15;1.70;;;1.10;1.40;;;2.39;100.00;96299.53;647106;212;42509;-79
2022/01/11 00:06:13;;;;;;;2.22;1.95;;;1.10;1.40;;;2.30;100.00;96303.84;614504;226;32033;-78
2022/01/11 00:08:45;;;;;;;2.35;2.20;;;1.10;1.40;;;2.15;100.00;96307.38;619581;226;32087;-75
2022/01/11 00:11:25;;;;;;;3.20;2.05;;;1.00;1.40;;;2.12;100.00;96307.20;646940;212;31860;-76
2022/01/11 00:14:13;;;;;;;1.27;0.95;;;1.00;1.40;;;2.16;100.00;96312.44;647257;216;31581;-80
2022/01/11 00:16:55;;;;;;;3.72;2.37;;;1.00;1.40;;;2.21;100.00;96311.74;620253;222;31898;-79
2022/01/11 00:19:37;;;;;;;3.30;2.62;;;1.10;1.40;;;2.20;100.00;96312.73;621136;226;42552;-80
2022/01/11 00:22:31;;;;;;;4.10;2.03;;;1.00;1.40;;;2.32;100.00;96313.27;647137;216;31562;-77
2022/01/11 00:25:09;;;;;;;2.92;1.90;;;1.10;1.40;;;2.55;100.00;96312.39;647402;216;31719;-78
2022/01/11 00:27:50;;;;;;;2.35;2.10;;;1.10;1.40;;;2.58;100.00;96318.95;647172;212;31585;-80
2022/01/11 00:30:37;;;;;;;0.88;0.88;;;1.10;1.40;;;2.55;100.00;96322.78;619070;226;32363;-78
2022/01/11 00:36:00;;;;;;;2.00;1.60;;;1.10;1.40;;;2.12;100.00;96326.41;648833;216;31768;-79
2022/01/11 00:38:40;;;;;;;2.70;2.50;;;1.10;1.40;;;1.98;100.00;96323.92;648286;212;31622;-79
2022/01/11 00:41:28;;;;;;;4.10;1.85;;;1.00;1.40;;;1.95;100.00;96333.02;646384;216;31653;-76
2022/01/11 00:44:16;;;;;;;2.10;2.00;;;1.00;1.40;;;1.87;100.00;96326.02;648258;216;31583;-79
2022/01/11 00:47:04;;;;;;;1.80;1.70;;;1.00;1.40;;;1.83;100.00;96325.34;647317;216;32319;-76
2022/01/11 00:49:50;;;;;;;1.90;1.77;;;1.00;1.40;;;1.91;100.00;96330.33;648235;212;31572;-79
2022/01/11 00:52:35;;;;;;;4.35;2.30;;;1.00;1.40;;;2.20;100.00;96333.29;647834;216;31565;-75
2022/01/11 00:55:17;;;;;;;1.85;1.35;;;1.10;1.40;;;2.08;100.00;96333.47;619811;225;31973;-76
2022/01/11 00:58:04;;;;;;;3.60;1.83;;;1.10;1.40;;;2.27;100.00;96342.25;647264;216;31557;-79
2022/01/11 01:00:50;;;;;;;1.70;1.60;;;1.10;1.40;;;2.36;100.00;96344.98;647198;212;31549;-79
2022/01/11 01:03:32;;;;;;;1.77;1.67;;;1.10;1.40;;;2.12;100.00;96348.77;647734;212;31599;-79
2022/01/11 01:06:17;;;;;;;1.17;1.05;;;1.10;1.40;;;2.27;100.00;96346.81;616008;226;32051;-79
2022/01/11 01:08:59;;;;;;;5.20;2.30;;;1.10;1.40;;;2.28;100.00;96357.54;620106;226;31929;-79
2022/01/11 01:11:43;;;;;;;2.03;1.83;;;1.10;1.40;;;2.32;100.00;96356.03;630900;221;31732;-79
2022/01/11 01:14:22;;;;;;;3.15;2.00;;;1.10;1.40;;;2.51;100.00;96358.97;619764;222;32443;-79
2022/01/11 01:17:11;;;;;;;3.60;2.70;;;1.20;1.40;;;2.34;100.00;96362.17;621010;222;32064;-88
2022/01/11 01:19:55;;;;;;;3.03;2.75;;;1.10;1.40;;;2.18;100.00;96359.45;646474;212;32118;-77
2022/01/11 01:22:42;;;;;;;2.23;1.33;;;1.10;1.40;;;2.13;100.00;96358.52;647582;216;42206;-78
2022/01/11 01:25:24;;;;;;;3.15;2.10;;;1.10;1.40;;;2.50;100.00;96363.13;648172;212;31534;-79
2022/01/11 01:28:07;;;;;;;4.60;2.70;;;1.10;1.40;;;2.59;100.00;96365.31;621252;225;31898;-79
2022/01/11 01:30:49;;;;;;;2.20;2.10;;;1.20;1.40;;;2.71;100.00;96368.26;619194;226;32263;-79
2022/01/11 01:35:59;;;;;;;2.35;2.15;;;1.20;1.40;;;2.65;100.00;96365.65;615431;224;31945;-76
2022/01/11 01:38:41;;;;;;;1.90;1.77;;;1.20;1.40;;;2.47;100.00;96363.53;648371;212;31541;-79
2022/01/11 01:41:23;;;;;;;2.53;2.33;;;1.20;1.40;;;2.49;100.00;96369.41;621865;222;31903;-79
2022/01/11 01:44:11;;;;;;;2.00;1.52;;;1.20;1.40;;;2.57;100.00;96373.36;645473;216;31667;-76
2022/01/11 01:46:58;;;;;;;1.73;1.60;;;1.20;1.40;;;2.56;100.00;96371.83;619535;226;32066;-79
2022/01/11 01:49:40;;;;;;;2.47;2.28;;;1.20;1.40;;;2.66;100.00;96367.48;646940;212;31564;-77
2022/01/11 01:54:56;;;;;;;2.33;2.10;;;1.20;1.40;;;2.74;100.00;96376.20;620214;222;31904;-79
2022/01/11 01:57:38;;;;;;;2.47;1.95;;;1.20;1.40;;;2.84;100.00;96376.03;646763;216;31596;-78
2022/01/11 02:00:20;;;;;;;1.45;1.20;;;1.20;1.40;;;2.70;100.00;96366.35;619604;226;32317;-79
2022/01/11 02:03:04;;;;;;;1.80;1.70;;;1.20;1.40;;;2.66;100.00;96365.19;647906;212;31616;-79
2022/01/11 02:05:46;;;;;;;1.40;1.15;;;1.20;1.40;;;2.49;100.00;96367.44;615844;222;32175;-79
2022/01/11 02:08:28;;;;;;;5.00;1.90;;;1.20;1.40;;;2.67;100.00;96366.55;647578;216;31525;-79
2022/01/11 02:11:10;;;;;;;3.80;2.70;;;1.20;1.40;;;2.71;100.00;96372.81;647505;216;31574;-78
2022/01/11 02:13:52;;;;;;;1.90;1.70;;;1.20;1.40;;;2.79;100.00;96371.05;647107;216;43091;-79
2022/01/11 02:16:34;;;;;;;3.10;2.65;;;1.20;1.40;;;2.42;100.00;96374.92;648077;216;31548;-79
2022/01/11 02:19:16;;;;;;;2.90;2.70;;;1.10;1.40;;;2.54;100.00;96376.45;620377;226;31953;-78
2022/01/11 02:21:58;;;;;;;2.22;1.92;;;1.10;1.40;;;2.65;100.00;96381.66;620587;226;31878;-79
2022/01/11 02:24:39;;;;;;;3.62;3.33;;;1.20;1.40;;;2.56;100.00;96383.89;647142;216;32008;-79
2022/01/11 02:27:27;;;;;;;2.08;1.48;;;1.20;1.40;;;2.69;100.00;96380.37;647794;216;31712;-77
2022/01/11 02:30:16;;;;;;;2.43;1.43;;;1.20;1.40;;;2.68;100.00;96384.19;642744;215;31572;-79
2022/01/11 02:33:02;;;;;;;3.05;2.75;;;1.20;1.40;;;2.56;100.00;96389.02;646484;216;42460;-79
2022/01/11 02:35:53;;;;;;;3.25;2.65;;;1.20;1.40;;;2.56;100.00;96387.72;647124;216;31563;-79
2022/01/11 02:38:36;;;;;;;2.30;2.20;;;1.20;1.40;;;2.73;100.00;96389.98;653098;212;23451;-79
2022/01/11 02:41:24;;;;;;;4.20;2.20;;;1.20;1.40;;;2.71;100.00;96392.71;646550;216;31624;-77
2022/01/11 02:44:12;;;;;;;1.30;0.80;;;1.20;1.40;;;2.54;100.00;96386.40;620058;222;31933;-79
2022/01/11 02:46:59;;;;;;;3.37;2.00;;;1.20;1.40;;;2.59;100.00;96392.35;646908;216;31972;-77
2022/01/11 02:49:47;;;;;;;3.83;3.15;;;1.20;1.40;;;2.59;100.00;96391.48;646653;216;31536;-79
2022/01/11 02:52:35;;;;;;;3.92;2.70;;;1.20;1.40;;;2.59;100.00;96389.94;647746;212;31536;-78
2022/01/11 02:55:19;;;;;;;1.70;1.60;;;1.20;1.40;;;2.58;100.00;96393.52;646189;216;31631;-75
2022/01/11 02:58:01;;;;;;;3.40;2.40;;;1.20;1.40;;;2.45;100.00;96389.81;620247;226;32079;-76
2022/01/11 03:00:49;;;;;;;4.70;1.95;;;1.10;1.40;;;2.35;100.00;96386.77;647473;216;31575;-79
2022/01/11 03:03:32;;;;;;;2.00;1.90;;;1.10;1.40;;;2.57;100.00;96388.82;618706;226;32526;-76
2022/01/11 03:06:16;;;;;;;3.90;2.20;;;1.10;1.40;;;2.54;100.00;96394.47;639385;212;32082;-79
2022/01/11 03:08:58;;;;;;;6.57;2.53;;;1.10;1.40;;;2.48;100.00;96389.50;647561;212;31559;-79
2022/01/11 03:11:46;;;;;;;2.12;1.95;;;1.10;1.40;;;2.65;100.00;96393.27;646532;216;31613;-77
2022/01/11 03:14:29;;;;;;;3.78;3.28;;;1.10;1.40;;;2.43;100.00;96393.52;647799;216;31557;-79
2022/01/11 03:17:11;;;;;;;2.40;1.70;;;1.10;1.40;;;2.40;100.00;96392.72;619035;226;31837;-79
2022/01/11 03:19:53;;;;;;;2.50;1.73;;;1.00;1.40;;;2.64;100.00;96399.08;645780;216;31562;-79
2022/01/11 03:22:37;;;;;;;2.85;2.40;;;1.10;1.40;;;2.69;100.00;96401.67;618661;222;31865;-77
2022/01/11 03:25:25;;;;;;;3.00;1.90;;;1.10;1.40;;;2.38;100.00;96404.98;645832;212;31540;-79
2022/01/11 03:28:06;;;;;;;2.33;2.13;;;1.10;1.40;;;2.37;100.00;96401.19;649306;212;42854;-79
2022/01/11 03:30:57;;;;;;;1.50;1.40;;;1.10;1.40;;;2.55;100.00;96402.80;646916;216;32266;-76
2022/01/11 03:35:53;;;;;;;1.95;1.58;;;1.20;1.40;;;2.65;100.00;96406.72;619089;226;32063;-79
2022/01/11 03:38:35;;;;;;;2.10;1.50;;;1.10;1.40;;;2.62;100.00;96403.58;618470;222;31926;-79
2022/01/11 03:41:16;;;;;;;2.95;2.65;;;1.10;1.40;;;2.55;100.00;96403.56;648502;216;31551;-79
2022/01/11 03:43:58;;;;;;;3.30;1.50;;;1.10;1.40;;;2.66;100.00;96402.14;647553;216;31515;-79
2022/01/11 03:46:40;;;;;;;2.80;2.55;;;1.10;1.40;;;2.51;100.00;96403.41;646926;216;31559;-79
2022/01/11 03:49:22;;;;;;;2.08;1.95;;;1.10;1.40;;;2.27;100.00;96403.84;619721;222;31960;-79
2022/01/11 03:52:04;;;;;;;1.80;1.70;;;1.00;1.40;;;2.08;100.00;96405.25;622044;225;31866;-79
2022/01/11 03:57:34;;;;;;;2.17;1.90;;;1.00;1.40;;;2.20;100.00;96404.16;646926;216;31594;-79
2022/01/11 04:00:17;;;;;;;1.80;1.40;;;1.00;1.40;;;2.22;100.00;96409.52;647879;216;31596;-79
2022/01/11 04:02:58;;;;;;;1.83;1.52;;;1.00;1.40;;;2.26;100.00;96407.77;647002;212;31512;-77
2022/01/11 04:05:42;;;;;;;4.95;2.85;;;1.00;1.40;;;2.33;100.00;96408.31;616369;226;32240;-79
2022/01/11 04:08:23;;;;;;;2.17;2.03;;;1.00;1.40;;;2.44;100.00;96413.07;619992;226;31890;-79
2022/01/11 04:11:05;;;;;;;2.65;2.45;;;1.00;1.40;;;2.44;100.00;96407.35;647150;212;31537;-79
2022/01/11 04:13:47;;;;;;;2.20;1.20;;;1.00;1.40;;;2.53;100.00;96407.88;648650;212;31890;-79
2022/01/11 04:16:30;;;;;;;1.40;1.30;;;1.00;1.40;;;2.49;100.00;96407.84;631697;221;32391;-77
2022/01/11 04:19:14;;;;;;;2.65;2.45;;;1.00;1.40;;;2.44;100.00;96412.27;647516;212;42170;-79
2022/01/11 04:21:57;;;;;;;3.20;2.00;;;1.00;1.40;;;2.47;100.00;96409.84;621741;226;31953;-79
2022/01/11 04:24:38;;;;;;;2.60;1.30;;;1.00;1.40;;;2.28;100.00;96410.77;648471;212;31904;-79
2022/01/11 04:27:19;;;;;;;1.70;1.60;;;1.00;1.40;;;2.15;100.00;96410.41;642473;216;32538;-79
2022/01/11 04:30:01;;;;;;;1.55;1.45;;;0.90;1.40;;;2.31;100.00;96411.59;648163;212;31761;-81
2022/01/11 04:32:43;;;;;;;2.70;2.60;;;0.90;1.40;;;2.28;100.00;96410.70;647310;216;31608;-79
2022/01/11 04:36:30;;;;;;;2.87;1.50;;;0.90;1.40;;;2.34;100.00;96411.13;647055;216;31668;-79
2022/01/11 04:39:12;;;;;;;2.90;2.60;;;0.90;1.40;;;2.40;100.00;96413.79;646683;216;31744;-78
2022/01/11 04:42:00;;;;;;;2.97;2.00;;;0.80;1.40;;;2.36;100.00;96422.36;647423;216;31573;-79
2022/01/11 04:44:48;;;;;;;2.70;1.80;;;0.80;1.40;;;2.37;100.00;96424.69;646850;216;31534;-76
2022/01/11 04:47:36;;;;;;;4.70;2.40;;;0.80;1.40;;;2.16;100.00;96435.63;647230;212;31566;-80
2022/01/11 04:50:25;;;;;;;2.53;2.30;;;0.80;1.40;;;1.92;100.00;96427.52;645593;216;31662;-76
2022/01/11 04:53:09;;;;;;;4.40;1.70;;;0.70;1.40;;;2.05;100.00;96430.52;619410;226;42669;-79
2022/01/11 04:55:57;;;;;;;1.30;1.17;;;0.70;1.40;;;1.78;100.00;96436.99;646355;216;31556;-77
2022/01/11 04:58:39;;;;;;;2.53;2.33;;;0.70;1.40;;;1.79;100.00;96436.17;621240;222;31939;-78
2022/01/11 05:01:26;;;;;;;2.55;2.35;;;0.70;1.40;;;1.70;100.00;96435.57;620808;226;31909;-79
2022/01/11 05:04:08;;;;;;;2.40;1.87;;;0.70;1.40;;;1.87;100.00;96437.41;619343;226;42733;-80
2022/01/11 05:06:50;;;;;;;2.35;1.75;;;0.70;1.40;;;2.04;100.00;96437.47;646851;212;31559;-80
2022/01/11 05:09:42;;;;;;;3.00;2.60;;;0.70;1.40;;;1.90;100.00;96436.22;647149;216;42142;-79
2022/01/11 05:12:24;;;;;;;2.20;2.10;;;0.70;1.40;;;1.85;100.00;96437.88;620591;222;31894;-79
2022/01/11 05:15:12;;;;;;;2.47;2.28;;;0.70;1.40;;;1.66;100.00;96440.91;645230;212;31620;-77
2022/01/11 05:17:59;;;;;;;2.95;2.03;;;0.70;1.40;;;1.79;100.00;96446.31;648914;216;31555;-79
2022/01/11 05:20:47;;;;;;;2.10;1.90;;;0.70;1.40;;;1.67;100.00;96448.79;647545;216;32919;-76
2022/01/11 05:23:31;;;;;;;2.90;2.00;;;0.70;1.40;;;1.69;100.00;96445.81;647114;212;31701;-79
2022/01/11 05:26:13;;;;;;;2.00;1.90;;;0.70;1.40;;;1.73;100.00;96454.92;647241;216;31611;-79
2022/01/11 05:29:03;;;;;;;3.65;3.30;;;0.70;1.40;;;1.71;100.00;96447.84;646295;216;31635;-76
2022/01/11 05:31:45;;;;;;;2.35;1.73;;;0.80;1.40;;;1.86;100.00;96447.73;646530;212;31598;-76
2022/01/11 05:35:57;;;;;;;6.90;2.90;;;0.80;1.40;;;1.88;100.00;96454.98;646401;216;31650;-79
2022/01/11 05:38:42;;;;;;;1.83;1.73;;;0.80;1.40;;;1.96;100.00;96451.48;647144;216;31604;-78
2022/01/11 05:41:24;;;;;;;2.30;1.92;;;0.80;1.40;;;1.90;100.00;96459.80;619623;226;42645;-79
2022/01/11 05:44:10;;;;;;;3.90;2.30;;;0.80;1.40;;;2.05;100.00;96455.91;619341;222;31910;-79
2022/01/11 05:46:53;;;;;;;3.37;2.37;;;0.80;1.40;;;2.08;100.00;96456.12;645380;216;31567;-76
2022/01/11 05:49:41;;;;;;;2.50;1.80;;;0.90;1.40;;;2.27;100.00;96458.26;642267;217;34983;-79
2022/01/11 05:52:29;;;;;;;3.30;2.12;;;0.90;1.40;;;2.23;100.00;96467.58;646305;216;31613;-76
2022/01/11 05:55:18;;;;;;;2.83;1.58;;;0.90;1.40;;;2.44;100.00;96470.81;620090;226;31858;-79
2022/01/11 05:58:05;;;;;;;2.12;1.92;;;1.00;1.40;;;2.50;100.00;96478.80;646914;216;31504;-77
2022/01/11 06:00:47;;;;;;;1.80;1.70;;;1.00;1.40;;;2.43;100.00;96485.02;646504;216;31605;-79
2022/01/11 06:03:36;;;;;;;2.80;2.00;;;1.00;1.40;;;2.48;100.00;96495.16;648726;216;31575;-79
2022/01/11 06:06:18;;;;;;;2.12;1.92;;;0.90;1.40;;;2.34;100.00;96496.47;640886;212;42349;-79
2022/01/11 06:09:04;;;;;;;2.05;1.85;;;0.80;1.40;;;2.00;100.00;96503.09;619459;226;32390;-78
2022/01/11 06:11:46;;;;;;;1.60;1.50;;;0.80;1.40;;;2.13;100.00;96494.39;647537;216;31645;-79
2022/01/11 06:14:27;;;;;;;1.98;1.87;;;0.80;1.40;;;2.19;100.00;96495.28;648209;212;31583;-79
2022/01/11 06:17:15;;;;;;;3.00;2.00;;;0.80;1.40;;;2.28;100.00;96498.41;646979;216;31569;-76
2022/01/11 06:20:03;;;;;;;0.80;0.80;;;0.80;1.40;;;2.35;100.00;96502.50;648386;212;31614;-79
2022/01/11 06:22:50;;;;;;;3.60;2.28;;;0.80;1.40;;;2.41;100.00;96502.48;645586;216;31708;-75
2022/01/11 06:25:38;;;;;;;1.60;1.50;;;0.80;1.40;;;2.18;100.00;96503.86;646355;212;31552;-78
2022/01/11 06:31:00;;;;;;;2.58;1.80;;;0.80;1.40;;;2.09;100.00;96511.59;631663;222;31705;-75
2022/01/11 06:35:52;;;;;;;1.48;1.37;;;0.80;1.40;;;2.26;100.00;96513.98;619139;222;32035;-78
2022/01/11 06:38:39;;;;;;;2.80;1.62;;;0.90;1.40;;;2.31;100.00;96520.14;645764;212;32961;-76
2022/01/11 06:41:21;;;;;;;2.80;1.77;;;0.90;1.40;;;2.35;100.00;96524.17;647491;213;31613;-77
2022/01/11 06:44:07;;;;;;;2.40;2.08;;;0.90;1.40;;;2.23;100.00;96522.47;649619;212;31590;-79
2022/01/11 06:46:55;;;;;;;1.80;1.45;;;0.90;1.40;;;2.34;100.00;96525.16;641864;217;42313;-79
2022/01/11 06:49:43;;;;;;;2.87;1.80;;;0.90;1.40;;;2.35;100.00;96527.87;648111;212;31737;-79
2022/01/11 06:52:25;;;;;;;3.03;1.85;;;0.90;1.40;;;2.39;100.00;96520.37;619980;226;31886;-79
2022/01/11 06:55:08;;;;;;;0.88;0.88;;;0.80;1.40;;;1.97;100.00;96525.08;648367;212;31527;-79
2022/01/11 06:57:50;;;;;;;4.20;3.62;;;0.60;1.40;;;1.77;100.00;96525.76;646457;216;31600;-79
2022/01/11 07:03:18;;;;;;;5.40;1.90;;;0.40;1.40;;;1.36;100.00;96530.34;648873;212;31560;-79
2022/01/11 07:06:03;;;;;;;3.30;2.28;;;0.30;1.40;;;1.46;100.00;96537.42;615430;226;32268;-79
2022/01/11 07:08:44;;;;;;;3.37;2.70;;;0.40;1.40;;;1.70;100.00;96537.30;621639;226;32123;-79
2022/01/11 07:11:26;;;;;;;4.07;2.17;;;0.50;1.40;;;1.96;100.00;96543.39;618644;222;31850;-78
2022/01/11 07:14:14;;;;;;;3.45;3.25;;;0.60;1.40;;;1.96;100.00;96546.11;646527;216;31791;-76
2022/01/11 07:17:02;;;;;;;2.50;2.30;;;0.60;1.40;;;1.98;100.00;96544.03;616499;224;31897;-79
2022/01/11 07:19:48;;;;;;;2.03;1.50;;;0.70;1.40;;;2.13;100.00;96548.99;646981;212;31601;-80
2022/01/11 07:22:33;;;;;;;1.83;1.73;;;0.80;1.40;;;2.04;100.00;96559.03;647608;216;31698;-77
2022/01/11 07:25:13;;;;;;;2.00;1.90;;;0.80;1.40;;;1.90;100.00;96563.64;647608;216;34749;-76
2022/01/11 07:27:58;;;;;;;2.22;2.03;;;0.80;1.40;;;2.22;100.00;96567.45;618919;222;32114;-76
2022/01/11 07:30:46;;;;;;;2.30;1.98;;;0.90;1.40;;;2.43;100.00;96572.38;647174;212;31810;-78
2022/01/11 07:35:50;;;;;;;1.42;1.02;;;0.90;1.40;;;2.52;100.00;96575.12;648164;216;31611;-77
2022/01/11 07:38:40;;;;;;;3.55;3.15;;;1.00;1.40;;;2.23;100.00;96570.71;647519;212;31568;-78
2022/01/11 07:41:28;;;;;;;2.87;2.35;;;1.00;1.40;;;2.01;100.00;96572.03;645078;212;31457;-75
2022/01/11 07:44:16;;;;;;;2.28;2.03;;;0.90;1.40;;;1.99;100.00;96574.12;648663;216;31672;-77
2022/01/11 07:46:58;;;;;;;2.10;1.60;;;0.90;1.40;;;1.83;100.00;96578.91;619212;222;32365;-77
2022/01/11 07:49:40;;;;;;;4.20;3.50;;;0.90;1.40;;;1.94;100.00;96579.80;648092;216;31583;-77
2022/01/11 07:52:22;;;;;;;2.10;1.80;;;1.00;1.40;;;2.27;100.00;96578.78;647055;212;31617;-77
2022/01/11 07:55:04;;;;;;;2.25;1.20;;;1.10;1.40;;;2.49;100.00;96582.09;647263;212;31877;-77
2022/01/11 07:57:46;;;;;;;1.90;1.80;;;1.10;1.40;;;2.51;100.00;96587.58;647740;216;31690;-76
2022/01/11 08:00:28;;;;;;;2.05;1.85;;;1.20;1.40;;;2.55;100.00;96592.55;619519;226;31902;-77
2022/01/11 08:03:10;;;;;;;2.90;2.40;;;1.20;1.40;;;2.46;100.00;96588.23;620578;226;31861;-78
2022/01/11 08:05:54;;;;;;;2.37;2.17;;;1.20;1.40;;;2.88;100.00;96581.78;642248;216;31800;-77
2022/01/11 08:08:42;;;;;;;2.40;2.00;;;1.40;1.40;;;2.40;100.00;96587.36;647836;212;32218;-78
2022/01/11 08:11:30;;;;;;;2.22;1.95;;;1.30;1.40;;;2.66;100.00;96593.20;642140;217;31636;-77
2022/01/11 08:14:17;;;;;;;3.90;2.30;;;1.30;1.40;;;2.72;100.00;96590.55;646904;216;31710;-79
2022/01/11 08:17:05;;;;;;;3.08;2.40;;;1.30;1.40;;;2.49;100.00;96587.68;620898;226;31965;-77
2022/01/11 08:19:47;;;;;;;2.80;2.60;;;1.30;1.40;;;2.47;100.00;96587.25;619833;226;32133;-78
2022/01/11 08:22:31;;;;;;;5.00;3.15;;;1.30;1.40;;;2.43;100.00;96585.36;647718;212;31544;-78
2022/01/11 08:25:13;;;;;;;2.17;1.85;;;1.30;1.40;;;2.60;100.00;96589.48;646487;212;42161;-78
2022/01/11 08:27:55;;;;;;;3.00;2.70;;;1.30;1.40;;;3.08;100.00;96580.27;645946;212;31582;-77
2022/01/11 08:30:36;;;;;;;3.22;2.20;;;1.50;1.40;;;2.95;100.00;96586.20;646979;216;31566;-77
2022/01/11 08:35:52;;;;;;;4.35;2.83;;;1.40;1.40;;;2.70;100.00;96592.95;647265;212;31605;-77
2022/01/11 08:38:34;;;;;;;2.50;2.40;;;1.50;1.40;;;2.85;100.00;96581.70;646928;216;31566;-77
2022/01/11 08:41:22;;;;;;;2.37;2.25;;;1.50;1.40;;;3.10;100.00;96592.22;647495;213;31551;-76
2022/01/11 08:44:02;;;;;;;2.47;2.28;;;1.50;1.40;;;3.16;100.00;96592.80;647159;212;31737;-76
2022/01/11 08:46:45;;;;;;;3.08;2.65;;;1.60;1.40;;;2.84;100.00;96597.41;647565;216;31537;-77
2022/01/11 08:49:26;;;;;;;2.87;2.55;;;1.50;1.40;;;3.09;100.00;96601.24;647550;212;42775;-77
2022/01/11 08:52:10;;;;;;;2.35;2.10;;;1.60;1.40;;;3.34;100.00;96602.13;646983;212;42233;-77
2022/01/11 08:54:53;;;;;;;2.87;2.00;;;1.70;1.40;;;3.41;100.00;96606.83;646854;216;31613;-77
2022/01/11 08:57:34;;;;;;;2.47;2.28;;;1.80;1.40;;;3.04;100.00;96612.70;648179;216;31520;-77
2022/01/11 09:00:18;;;;;;;1.73;1.62;;;1.70;1.40;;;3.23;100.00;96619.64;646345;216;42830;-77
2022/01/11 09:03:02;;;;;;;2.33;2.05;;;1.70;1.40;;;3.52;100.00;96619.27;647075;212;31587;-76
2022/01/11 09:05:44;;;;;;;2.60;2.40;;;1.80;1.40;;;3.65;100.00;96624.37;642839;216;31694;-78
2022/01/11 09:08:25;;;;;;;2.20;1.92;;;1.90;1.40;;;3.78;100.00;96632.50;647103;212;42150;-79
2022/01/11 09:11:08;;;;;;;2.50;2.25;;;1.90;1.40;;;3.24;100.00;96627.82;647310;215;31572;-77
2022/01/11 09:13:50;;;;;;;2.90;2.00;;;1.80;1.40;;;3.09;100.00;96633.89;620794;222;31915;-78
2022/01/11 09:16:32;;;;;;;2.85;2.55;;;1.80;1.40;;;3.13;100.00;96635.86;645804;212;31540;-77
2022/01/11 09:19:18;;;;;;;2.90;2.60;;;1.70;1.40;;;3.42;100.00;96634.98;646016;216;31531;-78
2022/01/11 09:22:00;;;;;;;3.50;3.20;;;1.90;1.40;;;3.58;100.00;96640.73;648387;212;31556;-78
2022/01/11 09:24:44;;;;;;;2.78;2.47;;;1.90;1.40;;;3.15;100.00;96646.14;648392;216;31558;-77
2022/01/11 09:27:26;;;;;;;2.45;2.35;;;1.80;1.40;;;3.52;100.00;96646.23;619746;226;31922;-77
2022/01/11 09:30:12;;;;;;;2.33;1.87;;;1.90;1.40;;;3.19;100.00;96654.86;619945;226;31909;-78
2022/01/11 09:32:54;;;;;;;4.15;3.15;;;1.90;1.40;;;3.73;100.00;96649.13;647264;212;31604;-77
2022/01/11 09:35:51;;;;;;;3.67;2.33;;;2.10;1.40;;;3.92;100.00;96651.89;647144;212;31560;-78
2022/01/11 09:38:33;;;;;;;2.15;2.03;;;2.20;1.40;;;4.16;100.00;96656.99;618946;222;32645;-78
2022/01/11 09:41:15;;;;;;;2.50;2.30;;;2.30;1.40;;;4.27;100.00;96653.59;647513;212;31660;-78
2022/01/11 09:43:57;;;;;;;1.60;1.50;;;2.50;1.40;;;4.05;100.00;96653.55;619648;222;42762;-77
2022/01/11 09:46:39;;;;;;;2.75;2.10;;;2.40;1.40;;;4.44;100.00;96649.73;646647;212;32105;-78
2022/01/11 09:49:21;;;;;;;2.58;2.35;;;2.50;1.40;;;4.62;100.00;96651.59;648364;216;31604;-78
2022/01/11 09:52:07;;;;;;;2.83;2.35;;;2.60;1.40;;;4.53;100.00;96649.63;620963;226;31869;-78
2022/01/11 09:54:46;;;;;;;1.97;1.77;;;2.50;1.40;;;4.49;100.00;96645.26;652455;212;24467;-78
2022/01/11 09:57:27;;;;;;;2.53;2.40;;;2.40;1.40;;;3.92;100.00;96651.03;641948;216;31585;-79
2022/01/11 10:00:12;;;;;;;3.42;3.12;;;2.20;1.40;;;3.98;100.00;96646.98;646002;216;31919;-76
2022/01/11 10:02:56;;;;;;;4.78;4.22;;;2.30;1.40;;;4.10;100.00;96648.32;620040;225;31929;-79
2022/01/11 10:05:38;;;;;;;3.83;3.42;;;2.30;1.40;;;4.23;100.00;96646.94;615961;222;32762;-78
2022/01/11 10:08:23;;;;;;;9.25;3.62;;;2.40;1.40;;;4.43;100.00;96641.40;619613;222;32194;-78
2022/01/11 10:11:06;;;;;;;3.78;3.42;;;2.60;1.40;;;4.62;100.00;96636.34;620009;226;32139;-77
2022/01/11 10:13:48;;;;;;;3.60;2.90;;;2.70;1.40;;;4.67;100.00;96637.06;621223;226;31987;-78
2022/01/11 10:16:33;;;;;;;4.28;3.87;;;2.70;1.40;;;4.88;100.00;96635.73;619742;226;32466;-77
2022/01/11 10:19:27;;;;;;;6.55;4.12;;;2.80;1.40;;;4.77;100.00;96634.03;619628;222;31928;-77
2022/01/11 10:22:12;;;;;;;3.25;2.72;;;2.90;1.40;;;5.06;100.00;96638.84;620410;226;31891;-77
2022/01/11 10:24:55;;;;;;;3.65;2.55;;;3.00;1.40;;;5.05;100.00;96642.53;620136;226;31831;-77
2022/01/11 10:27:39;;;;;;;2.28;2.08;;;3.00;1.40;;;4.28;100.00;96637.22;619695;226;31940;-77
2022/01/11 10:30:25;;;;;;;3.45;2.30;;;2.70;1.40;;;4.85;100.00;96631.76;647169;212;31562;-77
2022/01/11 10:35:51;;;;;;;3.60;2.70;;;2.70;1.40;;;4.58;100.00;96629.06;647576;212;32208;-77
2022/01/11 10:38:33;;;;;;;3.80;3.40;;;3.10;1.40;;;5.39;100.00;96617.58;647680;212;31578;-78
2022/01/11 10:41:14;;;;;;;2.85;2.53;;;3.20;1.40;;;5.12;100.00;96625.84;642769;217;31607;-77
2022/01/11 10:43:59;;;;;;;2.40;1.85;;;3.40;1.40;;;5.68;100.00;96628.56;648561;216;31560;-77
2022/01/11 10:46:44;;;;;;;3.78;2.05;;;3.90;1.40;;;5.92;100.00;96625.77;647820;212;42214;-78
2022/01/11 10:49:31;;;;;;;2.42;2.22;;;3.80;1.40;;;6.03;100.00;96628.88;646957;216;31941;-78
2022/01/11 10:54:50;;;;;;;3.70;2.75;;;3.50;1.40;;;5.74;100.00;96632.43;620914;222;31977;-78
2022/01/11 10:57:32;;;;;;;4.68;3.05;;;3.30;1.40;;;5.73;100.00;96630.69;647022;216;32336;-78
2022/01/11 11:00:15;;;;;;;3.30;2.33;;;3.40;1.40;;;4.93;100.00;96640.61;647235;212;42143;-78
2022/01/11 11:02:59;;;;;;;3.60;2.80;;;3.20;1.40;;;4.95;100.00;96644.79;648026;212;31553;-78
2022/01/11 11:05:50;;;;;;;3.83;2.80;;;3.30;1.40;;;5.06;100.00;96639.76;642957;216;31781;-78
2022/01/11 11:08:34;;;;;;;3.53;2.58;;;3.30;1.40;;;5.53;100.00;96642.28;646966;216;32448;-78
2022/01/11 11:11:15;;;;;;;4.50;3.23;;;3.40;1.40;;;5.48;100.00;96642.83;647537;212;32493;-79
2022/01/11 11:13:56;;;;;;;4.45;2.35;;;3.30;1.40;;;5.64;100.00;96645.71;646763;216;31690;-78
2022/01/11 11:16:37;;;;;;;3.72;2.97;;;3.20;1.40;;;5.56;100.00;96647.70;620182;222;32058;-78
2022/01/11 11:19:21;;;;;;;2.03;1.80;;;3.30;1.40;;;5.08;100.00;96649.58;647022;212;32119;-78
2022/01/11 11:22:02;;;;;;;2.93;2.60;;;3.20;1.40;;;5.39;100.00;96648.19;619503;222;31898;-78
2022/01/11 11:24:50;;;;;;;2.90;2.30;;;3.20;1.40;;;5.41;100.00;96649.42;641297;217;31586;-76
2022/01/11 11:27:33;;;;;;;2.60;2.07;;;3.30;1.40;;;5.21;100.00;96648.08;643438;215;32217;-78
2022/01/11 11:30:15;;;;;;;2.90;2.62;;;3.30;1.40;;;5.09;100.00;96654.27;621256;222;31907;-78
2022/01/11 11:32:57;;;;;;;3.85;3.45;;;3.20;1.40;;;4.34;100.00;96657.09;617283;226;31864;-78
2022/01/11 11:35:51;;;;;;;2.78;2.58;;;2.90;1.40;;;4.70;100.00;96650.61;619746;222;31952;-78
2022/01/11 11:38:33;;;;;;;3.95;3.00;;;3.30;1.40;;;5.06;100.00;96654.05;646413;212;31567;-77
2022/01/11 11:41:14;;;;;;;3.83;2.75;;;3.30;1.40;;;4.24;100.00;96655.39;646954;216;31587;-79
2022/01/11 11:44:08;;;;;;;3.50;2.40;;;3.00;1.40;;;4.59;100.00;96660.02;649331;216;31548;-78
2022/01/11 11:46:54;;;;;;;2.65;2.25;;;3.20;1.40;;;5.00;100.00;96660.41;648741;216;42764;-77
2022/01/11 11:49:49;;;;;;;3.37;2.35;;;3.40;1.40;;;5.36;100.00;96658.34;646410;216;31860;-77
2022/01/11 11:52:42;;;;;;;3.85;3.08;;;3.70;1.40;;;5.66;100.00;96655.37;646915;216;32141;-77
2022/01/11 11:55:25;;;;;;;1.83;1.67;;;3.80;1.40;;;6.00;100.00;96653.86;647041;212;32401;-78
2022/01/11 11:58:08;;;;;;;2.63;2.43;;;3.90;1.40;;;5.93;100.00;96652.65;652239;216;24606;-77
2022/01/11 12:00:56;;;;;;;3.08;2.22;;;3.80;1.40;;;6.00;100.00;96654.45;646535;216;31547;-76
2022/01/11 12:03:42;;;;;;;2.92;2.25;;;3.70;1.40;;;5.40;100.00;96648.34;648036;216;42302;-78
2022/01/11 12:06:27;;;;;;;2.20;1.80;;;3.60;1.40;;;5.80;100.00;96646.33;639950;216;34210;-77
2022/01/11 12:09:12;;;;;;;3.87;2.40;;;3.60;1.40;;;5.08;100.00;96651.89;647624;216;31600;-77
2022/01/11 12:11:57;;;;;;;3.97;2.53;;;3.30;1.40;;;5.02;100.00;96650.65;619870;222;32086;-78
2022/01/11 12:14:36;;;;;;;2.08;1.87;;;3.20;1.40;;;4.70;100.00;96651.30;647453;216;42212;-78
2022/01/11 12:17:25;;;;;;;4.43;2.55;;;3.00;1.40;;;4.92;100.00;96656.38;647993;212;42349;-78